sensor_id;sensor_type;location;lat;lon;timestamp;P1;durP1;ratioP1;P2;durP2;ratioP2
66870;SDS011;53780;44.998;9.926;2023-05-07T18:30:06;12.68;;;7.07;;
66870;SDS011;53780;44.998;9.926;2023-05-07T18:33:12;12.23;;;6.63;;
66870;SDS011;53780;44.998;9.926;2023-05-07T18:36:16;11.32;;;6.03;;
66870;SDS011;53780;44.998;9.926;2023-05-07T18:39:19;10.17;;;6.00;;
66870;SDS011;53780;44.998;9.926;2023-05-07T18:42:24;13.65;;;7.57;;
66870;SDS011;53780;44.998;9.926;2023-05-07T18:45:28;14.70;;;8.60;;
66870;SDS011;53780;44.998;9.926;2023-05-07T18:48:32;17.30;;;8.73;;
66870;SDS011;53780;44.998;9.926;2023-05-07T18:51:36;14.38;;;7.93;;
66870;SDS011;53780;44.998;9.926;2023-05-07T18:54:40;21.20;;;6.93;;
66870;SDS011;53780;44.998;9.926;2023-05-07T18:57:44;11.70;;;2.50;;
66870;SDS011;53780;44.998;9.926;2023-05-07T19:00:50;17.73;;;2.78;;
66870;SDS011;53780;44.998;9.926;2023-05-07T19:03:54;15.25;;;2.65;;
66870;SDS011;53780;44.998;9.926;2023-05-07T19:06:59;39.35;;;4.70;;
66870;SDS011;53780;44.998;9.926;2023-05-07T19:10:03;43.93;;;4.67;;
66870;SDS011;53780;44.998;9.926;2023-05-07T19:13:07;32.17;;;3.30;;
66870;SDS011;53780;44.998;9.926;2023-05-07T19:16:12;51.05;;;3.85;;
66870;SDS011;53780;44.998;9.926;2023-05-07T19:19:16;30.67;;;3.83;;
66870;SDS011;53780;44.998;9.926;2023-05-07T19:22:20;16.15;;;3.85;;
66870;SDS011;53780;44.998;9.926;2023-05-07T19:25:25;10.20;;;3.97;;
66870;SDS011;53780;44.998;9.926;2023-05-07T19:28:29;13.38;;;4.53;;
66870;SDS011;53780;44.998;9.926;2023-05-07T19:31:33;11.18;;;4.32;;
66870;SDS011;53780;44.998;9.926;2023-05-07T19:34:37;13.20;;;4.60;;
66870;SDS011;53780;44.998;9.926;2023-05-07T19:37:40;11.63;;;4.70;;
66870;SDS011;53780;44.998;9.926;2023-05-07T19:40:44;10.20;;;4.50;;
66870;SDS011;53780;44.998;9.926;2023-05-07T19:43:48;6.70;;;3.53;;
66870;SDS011;53780;44.998;9.926;2023-05-07T19:46:52;8.32;;;3.38;;
66870;SDS011;53780;44.998;9.926;2023-05-07T19:49:55;4.97;;;2.55;;
66870;SDS011;53780;44.998;9.926;2023-05-07T19:52:59;6.43;;;2.47;;
66870;SDS011;53780;44.998;9.926;2023-05-07T19:56:06;6.60;;;2.30;;
66870;SDS011;53780;44.998;9.926;2023-05-07T19:59:12;6.05;;;2.30;;
66870;SDS011;53780;44.998;9.926;2023-05-07T20:02:16;8.05;;;2.75;;
66870;SDS011;53780;44.998;9.926;2023-05-07T20:05:19;5.88;;;2.40;;
66870;SDS011;53780;44.998;9.926;2023-05-07T20:08:23;6.13;;;2.83;;
66870;SDS011;53780;44.998;9.926;2023-05-07T20:11:28;7.47;;;3.53;;
66870;SDS011;53780;44.998;9.926;2023-05-07T20:14:32;10.23;;;3.42;;
66870;SDS011;53780;44.998;9.926;2023-05-07T20:17:36;9.70;;;4.00;;
66870;SDS011;53780;44.998;9.926;2023-05-07T20:20:40;8.65;;;3.95;;
66870;SDS011;53780;44.998;9.926;2023-05-07T20:23:44;9.20;;;4.30;;
66870;SDS011;53780;44.998;9.926;2023-05-07T20:26:48;7.37;;;3.60;;
66870;SDS011;53780;44.998;9.926;2023-05-07T20:29:53;8.00;;;4.15;;
66870;SDS011;53780;44.998;9.926;2023-05-07T20:32:57;9.43;;;4.55;;
66870;SDS011;53780;44.998;9.926;2023-05-07T20:36:01;8.52;;;4.40;;
66870;SDS011;53780;44.998;9.926;2023-05-07T20:39:04;7.97;;;4.20;;
66870;SDS011;53780;44.998;9.926;2023-05-07T20:42:08;8.17;;;4.03;;
66870;SDS011;53780;44.998;9.926;2023-05-07T20:45:13;7.07;;;3.40;;
66870;SDS011;53780;44.998;9.926;2023-05-07T20:48:17;6.07;;;3.05;;
66870;SDS011;53780;44.998;9.926;2023-05-07T20:51:21;6.05;;;3.60;;
66870;SDS011;53780;44.998;9.926;2023-05-07T20:54:25;8.48;;;3.38;;
66870;SDS011;53780;44.998;9.926;2023-05-07T20:57:30;7.00;;;3.63;;
66870;SDS011;53780;44.998;9.926;2023-05-07T21:00:34;9.95;;;4.30;;
66870;SDS011;53780;44.998;9.926;2023-05-07T21:03:38;6.40;;;3.90;;
66870;SDS011;53780;44.998;9.926;2023-05-07T21:06:41;7.40;;;4.05;;
66870;SDS011;53780;44.998;9.926;2023-05-07T21:09:46;7.53;;;4.30;;
66870;SDS011;53780;44.998;9.926;2023-05-07T21:12:50;7.77;;;4.00;;
66870;SDS011;53780;44.998;9.926;2023-05-07T21:15:54;8.77;;;4.88;;
66870;SDS011;53780;44.998;9.926;2023-05-07T21:18:57;11.10;;;5.13;;
66870;SDS011;53780;44.998;9.926;2023-05-07T21:22:01;9.70;;;5.88;;
66870;SDS011;53780;44.998;9.926;2023-05-07T21:25:05;9.55;;;5.47;;
66870;SDS011;53780;44.998;9.926;2023-05-07T21:28:10;10.63;;;5.43;;
66870;SDS011;53780;44.998;9.926;2023-05-07T21:31:13;9.32;;;5.03;;
66870;SDS011;53780;44.998;9.926;2023-05-07T21:34:18;10.05;;;4.80;;
66870;SDS011;53780;44.998;9.926;2023-05-07T21:37:21;8.15;;;4.95;;
